createdAt,value
2019-02-10T00:00:36.340Z,1.30
2019-02-10T00:01:36.321Z,1.20
2019-02-10T00:02:36.294Z,1.10
2019-02-10T00:03:36.278Z,1.30
2019-02-10T00:04:36.251Z,1.00
2019-02-10T00:05:36.230Z,1.40
2019-02-10T00:06:36.211Z,1.10
2019-02-10T00:07:36.191Z,1.20
2019-02-10T00:08:36.168Z,1.20
2019-02-10T00:09:36.145Z,1.20
2019-02-10T00:10:36.118Z,1.20
2019-02-10T00:11:36.099Z,1.60
2019-02-10T00:12:36.076Z,1.50
2019-02-10T00:13:36.054Z,1.60
2019-02-10T00:14:36.030Z,1.10
2019-02-10T00:15:36.009Z,1.30
2019-02-10T00:16:35.985Z,1.10
2019-02-10T00:17:35.961Z,1.40
2019-02-10T00:18:35.944Z,1.10
2019-02-10T00:19:35.921Z,1.30
2019-02-10T00:20:35.897Z,1.40
2019-02-10T00:21:35.875Z,1.30
2019-02-10T00:22:35.855Z,1.30
2019-02-10T00:23:35.837Z,1.10
2019-02-10T00:24:35.814Z,1.10
2019-02-10T00:25:35.788Z,1.30
2019-02-10T00:26:35.764Z,1.30
2019-02-10T00:27:35.746Z,1.10
2019-02-10T00:28:35.726Z,1.30
2019-02-10T00:29:35.696Z,1.30
2019-02-10T00:30:35.678Z,1.40
2019-02-10T00:31:35.654Z,1.50
2019-02-10T00:32:35.631Z,1.30
2019-02-10T00:33:35.613Z,1.30
2019-02-10T00:34:35.588Z,1.50
2019-02-10T00:35:35.570Z,1.30
2019-02-10T00:36:35.551Z,1.30
2019-02-10T00:37:35.524Z,1.60
2019-02-10T00:38:35.510Z,1.40
2019-02-10T00:39:35.484Z,1.40
2019-02-10T00:40:35.456Z,1.40
2019-02-10T00:41:35.442Z,1.10
2019-02-10T00:42:35.413Z,1.20
2019-02-10T00:43:35.387Z,1.10
2019-02-10T00:44:35.370Z,1.20
2019-02-10T00:45:35.342Z,1.40
2019-02-10T00:46:35.324Z,1.20
2019-02-10T00:47:35.305Z,1.30
2019-02-10T00:48:35.280Z,1.40
2019-02-10T00:49:35.256Z,1.30
2019-02-10T00:50:35.238Z,1.30
2019-02-10T00:51:35.213Z,1.30
2019-02-10T00:52:35.187Z,1.30
2019-02-10T00:53:35.165Z,1.30
2019-02-10T00:54:35.142Z,1.00
2019-02-10T00:55:35.123Z,1.50
2019-02-10T00:56:35.104Z,1.40
2019-02-10T00:57:35.077Z,1.60
2019-02-10T00:58:35.054Z,1.20
2019-02-10T00:59:35.035Z,1.30
2019-02-10T01:00:35.013Z,1.20
2019-02-10T01:01:34.992Z,1.30
2019-02-10T01:02:34.966Z,1.20
2019-02-10T01:03:34.944Z,1.30
2019-02-10T01:04:34.924Z,1.20
2019-02-10T01:05:34.904Z,1.40
2019-02-10T01:06:41.116Z,1.40
2019-02-10T01:07:34.866Z,1.40
2019-02-10T01:08:34.840Z,1.30
2019-02-10T01:09:34.814Z,1.80
2019-02-10T01:10:34.792Z,1.20
2019-02-10T01:11:34.770Z,1.30
2019-02-10T01:12:34.750Z,1.50
2019-02-10T01:13:34.722Z,1.50
2019-02-10T01:14:34.708Z,1.20
2019-02-10T01:15:34.684Z,1.50
2019-02-10T01:16:34.658Z,1.30
2019-02-10T01:17:34.635Z,1.40
2019-02-10T01:18:34.613Z,1.30
2019-02-10T01:19:34.595Z,1.50
2019-02-10T01:20:34.568Z,1.20
2019-02-10T01:21:34.551Z,1.40
2019-02-10T01:22:34.533Z,1.30
2019-02-10T01:23:34.502Z,1.10
2019-02-10T01:24:34.478Z,1.20
2019-02-10T01:25:34.457Z,1.40
2019-02-10T01:26:34.433Z,1.30
2019-02-10T01:27:34.416Z,1.50
2019-02-10T01:28:34.393Z,1.10
2019-02-10T01:29:34.365Z,1.60
2019-02-10T01:30:34.350Z,1.70
2019-02-10T01:31:34.325Z,1.30
2019-02-10T01:32:34.302Z,1.50
2019-02-10T01:33:34.279Z,1.40
2019-02-10T01:34:34.258Z,1.30
2019-02-10T01:35:34.239Z,1.70
2019-02-10T01:36:34.210Z,1.40
2019-02-10T01:37:34.188Z,1.50
2019-02-10T01:38:34.169Z,1.40
2019-02-10T01:39:34.152Z,1.40
2019-02-10T01:40:34.123Z,1.30
2019-02-10T01:41:34.107Z,1.30
2019-02-10T01:42:34.082Z,1.50
2019-02-10T01:43:34.058Z,1.00
2019-02-10T01:44:34.035Z,1.70
2019-02-10T01:45:34.014Z,1.20
2019-02-10T01:46:33.995Z,1.30
2019-02-10T01:47:33.969Z,1.30
2019-02-10T01:48:33.948Z,1.40
2019-02-10T01:49:33.927Z,1.70
2019-02-10T01:50:33.905Z,1.20
2019-02-10T01:51:33.879Z,1.20
2019-02-10T01:52:33.859Z,1.30
2019-02-10T01:53:33.835Z,1.30
2019-02-10T01:54:33.813Z,1.30
2019-02-10T01:55:33.795Z,1.10
2019-02-10T01:56:33.769Z,1.70
2019-02-10T01:57:33.749Z,1.60
2019-02-10T01:58:33.723Z,1.40
2019-02-10T01:59:33.702Z,1.10
2019-02-10T02:00:33.683Z,1.40
2019-02-10T02:01:33.659Z,1.60
2019-02-10T02:02:33.639Z,1.30
2019-02-10T02:03:33.617Z,2.00
2019-02-10T02:04:33.591Z,1.20
2019-02-10T02:05:33.575Z,1.40
2019-02-10T02:06:33.541Z,1.30
2019-02-10T02:07:33.530Z,1.60
2019-02-10T02:08:33.497Z,1.30
2019-02-10T02:09:33.477Z,1.40
2019-02-10T02:10:33.465Z,1.40
2019-02-10T02:11:33.437Z,1.60
2019-02-10T02:12:33.408Z,1.30
2019-02-10T02:13:33.385Z,1.20
2019-02-10T02:14:33.363Z,1.30
2019-02-10T02:15:33.344Z,1.60
2019-02-10T02:16:33.325Z,1.40
2019-02-10T02:17:33.299Z,1.30
2019-02-10T02:18:33.278Z,1.40
2019-02-10T02:19:33.255Z,1.60
2019-02-10T02:20:33.230Z,1.20
2019-02-10T02:21:33.222Z,1.40
2019-02-10T02:22:33.183Z,1.40
2019-02-10T02:23:33.162Z,1.30
2019-02-10T02:24:33.143Z,1.30
2019-02-10T02:25:33.120Z,1.50
2019-02-10T02:26:33.095Z,1.40
2019-02-10T02:27:33.073Z,1.70
2019-02-10T02:28:33.053Z,1.30
2019-02-10T02:29:33.029Z,1.30
2019-02-10T02:30:33.008Z,1.30
2019-02-10T02:31:32.990Z,1.50
2019-02-10T02:32:32.961Z,1.40
2019-02-10T02:33:32.940Z,1.20
2019-02-10T02:34:32.917Z,1.20
2019-02-10T02:35:32.902Z,1.50
2019-02-10T02:36:32.870Z,1.30
2019-02-10T02:37:32.849Z,1.30
2019-02-10T02:38:32.829Z,1.10
2019-02-10T02:39:32.805Z,1.50
2019-02-10T02:40:32.784Z,1.10
2019-02-10T02:41:32.760Z,1.10
2019-02-10T02:42:32.742Z,1.20
2019-02-10T02:43:32.714Z,1.40
2019-02-10T02:44:32.688Z,1.40
2019-02-10T02:45:32.669Z,1.50
2019-02-10T02:46:32.646Z,1.20
2019-02-10T02:47:32.626Z,1.20
2019-02-10T02:48:32.598Z,1.30
2019-02-10T02:49:32.584Z,1.20
2019-02-10T02:50:32.556Z,1.60
2019-02-10T02:51:32.531Z,1.30
2019-02-10T02:52:32.522Z,1.30
2019-02-10T02:53:32.488Z,1.50
2019-02-10T02:54:32.466Z,1.20
2019-02-10T02:55:32.446Z,1.30
2019-02-10T02:56:32.469Z,1.20
2019-02-10T02:57:32.399Z,1.40
2019-02-10T02:58:32.380Z,1.30
2019-02-10T02:59:32.350Z,1.20
2019-02-10T03:00:32.334Z,1.20
2019-02-10T03:01:32.307Z,1.40
2019-02-10T03:02:32.285Z,1.40
2019-02-10T03:03:32.262Z,1.30
2019-02-10T03:04:32.239Z,1.20
2019-02-10T03:05:32.218Z,1.30
2019-02-10T03:06:32.196Z,1.10
2019-02-10T03:07:32.173Z,1.40
2019-02-10T03:08:32.156Z,1.00
2019-02-10T03:09:32.127Z,1.30
2019-02-10T03:10:32.107Z,1.50
2019-02-10T03:11:32.080Z,1.50
2019-02-10T03:12:32.058Z,1.20
2019-02-10T03:13:32.040Z,1.30
2019-02-10T03:14:32.018Z,1.40
2019-02-10T03:15:32.000Z,1.40
2019-02-10T03:16:31.966Z,1.40
2019-02-10T03:17:31.947Z,1.30
2019-02-10T03:18:31.930Z,1.30
2019-02-10T03:19:31.904Z,1.60
2019-02-10T03:20:31.879Z,1.20
2019-02-10T03:21:31.857Z,1.40
2019-02-10T03:22:31.832Z,1.40
2019-02-10T03:23:31.812Z,1.30
2019-02-10T03:24:31.796Z,1.60
2019-02-10T03:25:31.773Z,1.30
2019-02-10T03:26:31.754Z,1.40
2019-02-10T03:27:31.724Z,1.40
2019-02-10T03:28:31.707Z,1.20
2019-02-10T03:29:31.676Z,1.50
2019-02-10T03:30:31.660Z,1.10
2019-02-10T03:31:31.633Z,1.20
2019-02-10T03:32:31.630Z,1.30
2019-02-10T03:33:31.594Z,1.50
2019-02-10T03:34:31.570Z,1.20
2019-02-10T03:35:31.542Z,1.40
2019-02-10T03:36:31.516Z,1.30
2019-02-10T03:37:31.494Z,1.40
2019-02-10T03:38:31.475Z,1.20
2019-02-10T03:39:31.451Z,1.60
2019-02-10T03:40:31.426Z,1.30
2019-02-10T03:41:31.405Z,1.10
2019-02-10T03:42:31.386Z,1.10
2019-02-10T03:43:31.364Z,1.40
2019-02-10T03:44:31.344Z,1.50
2019-02-10T03:45:31.316Z,1.10
2019-02-10T03:46:31.290Z,1.50
2019-02-10T03:47:31.268Z,1.30
2019-02-10T03:48:31.253Z,1.30
2019-02-10T03:49:31.235Z,1.20
2019-02-10T03:50:31.204Z,1.40
2019-02-10T03:51:31.182Z,1.30
2019-02-10T03:52:31.159Z,1.30
2019-02-10T03:53:31.132Z,1.40
2019-02-10T03:54:31.116Z,1.30
2019-02-10T03:55:31.088Z,1.40
2019-02-10T03:56:31.062Z,1.30
2019-02-10T03:57:31.055Z,1.50
2019-02-10T03:58:31.019Z,1.30
2019-02-10T03:59:30.996Z,1.10
2019-02-10T04:00:30.972Z,1.30
2019-02-10T04:01:30.951Z,1.20
2019-02-10T04:02:30.927Z,1.60
2019-02-10T04:03:30.907Z,1.30
2019-02-10T04:04:30.925Z,1.50
2019-02-10T04:05:30.865Z,1.60
2019-02-10T04:06:30.839Z,1.30
2019-02-10T04:07:36.179Z,1.10
2019-02-10T04:08:30.793Z,1.20
2019-02-10T04:09:30.771Z,1.40
2019-02-10T04:10:30.749Z,1.40
2019-02-10T04:11:30.728Z,1.40
2019-02-10T04:12:30.708Z,1.60
2019-02-10T04:13:30.681Z,1.30
2019-02-10T04:14:30.656Z,1.50
2019-02-10T04:15:30.635Z,1.70
2019-02-10T04:16:30.611Z,1.80
2019-02-10T04:17:30.587Z,1.30
2019-02-10T04:18:30.567Z,1.30
2019-02-10T04:19:30.547Z,1.40
2019-02-10T04:20:30.523Z,1.70
2019-02-10T04:21:30.501Z,1.40
2019-02-10T04:22:30.478Z,1.30
2019-02-10T04:23:30.456Z,1.10
2019-02-10T04:24:30.428Z,1.50
2019-02-10T04:25:30.465Z,1.60
2019-02-10T04:26:30.387Z,1.50
2019-02-10T04:27:30.369Z,1.50
2019-02-10T04:28:30.334Z,1.40
2019-02-10T04:29:30.314Z,1.40
2019-02-10T04:30:30.293Z,1.80
2019-02-10T04:31:30.270Z,1.40
2019-02-10T04:32:30.248Z,1.70
2019-02-10T04:33:30.223Z,1.60
2019-02-10T04:34:30.201Z,1.30
2019-02-10T04:35:30.179Z,1.30
2019-02-10T04:36:30.159Z,1.40
2019-02-10T04:37:30.135Z,1.30
2019-02-10T04:38:30.114Z,1.40
2019-02-10T04:39:30.080Z,1.70
2019-02-10T04:40:30.059Z,1.30
2019-02-10T04:41:30.044Z,1.30
2019-02-10T04:42:30.023Z,1.50
2019-02-10T04:43:30.008Z,1.50
2019-02-10T04:44:29.969Z,1.80
2019-02-10T04:45:29.952Z,1.70
2019-02-10T04:46:29.931Z,1.30
2019-02-10T04:47:29.907Z,1.70
2019-02-10T04:48:29.884Z,1.10
2019-02-10T04:49:29.857Z,1.40
2019-02-10T04:50:29.840Z,1.50
2019-02-10T04:51:29.825Z,1.60
2019-02-10T04:52:29.799Z,1.60
2019-02-10T04:53:29.766Z,1.50
2019-02-10T04:54:29.746Z,1.50
2019-02-10T04:55:29.727Z,1.40
2019-02-10T04:56:29.699Z,1.30
2019-02-10T04:57:29.681Z,1.50
2019-02-10T04:58:29.658Z,1.20
2019-02-10T04:59:29.632Z,1.40
2019-02-10T05:00:29.614Z,1.30
2019-02-10T05:01:29.599Z,1.30
2019-02-10T05:02:29.565Z,1.40
2019-02-10T05:03:29.542Z,1.20
2019-02-10T05:04:29.520Z,1.30
2019-02-10T05:05:29.500Z,1.60
2019-02-10T05:06:29.474Z,1.50
2019-02-10T05:07:29.457Z,1.30
2019-02-10T05:08:29.430Z,1.20
2019-02-10T05:09:29.408Z,1.20
2019-02-10T05:10:29.384Z,1.50
2019-02-10T05:11:29.367Z,1.10
2019-02-10T05:12:29.338Z,1.10
2019-02-10T05:13:29.317Z,1.30
2019-02-10T05:14:29.292Z,1.80
2019-02-10T05:15:29.272Z,1.60
2019-02-10T05:16:29.251Z,1.40
2019-02-10T05:17:29.223Z,1.30
2019-02-10T05:18:29.203Z,1.40
2019-02-10T05:19:29.177Z,1.30
2019-02-10T05:20:29.203Z,1.40
2019-02-10T05:21:29.134Z,1.60
2019-02-10T05:22:29.112Z,1.30
2019-02-10T05:23:29.100Z,1.70
2019-02-10T05:24:29.086Z,1.60
2019-02-10T05:25:29.045Z,1.40
2019-02-10T05:26:29.018Z,1.30
2019-02-10T05:27:29.006Z,1.30
2019-02-10T05:28:28.973Z,1.30
2019-02-10T05:29:28.954Z,1.40
2019-02-10T05:30:28.927Z,1.20
2019-02-10T05:31:28.923Z,1.70
2019-02-10T05:32:28.884Z,1.50
2019-02-10T05:33:28.859Z,1.30
2019-02-10T05:34:28.837Z,1.40
2019-02-10T05:35:28.818Z,1.70
2019-02-10T05:36:28.792Z,1.90
2019-02-10T05:37:28.775Z,1.30
2019-02-10T05:38:28.752Z,1.30
2019-02-10T05:39:28.713Z,1.60
2019-02-10T05:40:28.704Z,1.90
2019-02-10T05:41:28.680Z,1.10
2019-02-10T05:42:28.653Z,1.60
2019-02-10T05:43:28.635Z,1.30
2019-02-10T05:44:28.612Z,1.50
2019-02-10T05:45:28.588Z,1.30
2019-02-10T05:46:28.564Z,1.40
2019-02-10T05:47:28.548Z,1.60
2019-02-10T05:48:28.539Z,1.20
2019-02-10T05:49:28.496Z,1.30
2019-02-10T05:50:28.473Z,1.60
2019-02-10T05:51:28.456Z,1.50
2019-02-10T05:52:28.425Z,1.40
2019-02-10T05:53:28.405Z,1.50
2019-02-10T05:54:28.382Z,1.20
2019-02-10T05:55:28.363Z,1.60
2019-02-10T05:56:28.336Z,1.30
2019-02-10T05:57:28.315Z,1.50
2019-02-10T05:58:28.293Z,1.50
2019-02-10T05:59:28.269Z,1.50
2019-02-10T06:00:28.249Z,1.70
2019-02-10T06:01:28.221Z,1.70
2019-02-10T06:02:28.201Z,1.50
2019-02-10T06:03:28.175Z,1.40
2019-02-10T06:04:28.153Z,1.40
2019-02-10T06:05:28.136Z,1.40
2019-02-10T06:06:28.112Z,1.40
2019-02-10T06:07:28.096Z,1.40
2019-02-10T06:08:28.063Z,1.30
2019-02-10T06:09:28.042Z,1.70
2019-02-10T06:10:28.022Z,1.40
2019-02-10T06:11:28.005Z,1.30
2019-02-10T06:12:27.983Z,1.40
2019-02-10T06:13:27.950Z,1.20
2019-02-10T06:14:27.933Z,1.60
2019-02-10T06:15:27.903Z,1.30
2019-02-10T06:16:27.881Z,1.70
2019-02-10T06:17:27.865Z,1.70
2019-02-10T06:18:27.839Z,1.30
2019-02-10T06:19:27.815Z,1.30
2019-02-10T06:20:27.789Z,1.40
2019-02-10T06:21:27.773Z,1.50
2019-02-10T06:22:27.749Z,1.20
2019-02-10T06:23:27.722Z,1.30
2019-02-10T06:24:27.704Z,1.10
2019-02-10T06:25:27.677Z,1.40
2019-02-10T06:26:27.655Z,1.30
2019-02-10T06:27:27.636Z,1.30
2019-02-10T06:28:27.614Z,1.30
2019-02-10T06:29:27.590Z,1.30
2019-02-10T06:30:27.566Z,1.40
2019-02-10T06:31:27.542Z,1.50
2019-02-10T06:32:27.520Z,1.40
2019-02-10T06:33:27.500Z,1.30
2019-02-10T06:34:27.475Z,1.40
2019-02-10T06:35:27.452Z,1.30
2019-02-10T06:36:27.428Z,1.40
2019-02-10T06:37:27.405Z,1.50
2019-02-10T06:38:27.381Z,1.70
2019-02-10T06:39:27.387Z,1.70
2019-02-10T06:40:27.339Z,1.40
2019-02-10T06:41:27.317Z,1.30
2019-02-10T06:42:27.294Z,1.60
2019-02-10T06:43:27.270Z,1.70
2019-02-10T06:44:27.248Z,1.40
2019-02-10T06:45:27.227Z,1.20
2019-02-10T06:46:27.207Z,1.60
2019-02-10T06:47:27.181Z,1.30
2019-02-10T06:48:27.157Z,1.60
2019-02-10T06:49:27.139Z,1.40
2019-02-10T06:50:27.110Z,1.30
2019-02-10T06:51:27.100Z,1.50
2019-02-10T06:52:27.069Z,1.30
2019-02-10T06:53:27.047Z,1.50
2019-02-10T06:54:27.024Z,1.60
2019-02-10T06:55:27.003Z,1.60
2019-02-10T06:56:26.979Z,1.40
2019-02-10T06:57:26.954Z,1.70
2019-02-10T06:58:26.933Z,1.40
2019-02-10T06:59:26.913Z,1.60
2019-02-10T07:00:26.899Z,1.30
2019-02-10T07:01:26.866Z,1.30
2019-02-10T07:02:26.845Z,1.40
2019-02-10T07:03:26.821Z,1.60
2019-02-10T07:04:26.799Z,1.60
2019-02-10T07:05:26.779Z,2.00
2019-02-10T07:06:26.753Z,1.70
2019-02-10T07:07:26.733Z,1.80
2019-02-10T07:08:30.530Z,1.70
2019-02-10T07:09:26.693Z,2.70
2019-02-10T07:10:26.667Z,1.90
2019-02-10T07:11:26.644Z,1.90
2019-02-10T07:12:26.621Z,1.80
2019-02-10T07:13:26.597Z,1.60
2019-02-10T07:14:26.572Z,1.70
2019-02-10T07:15:26.561Z,2.00
2019-02-10T07:16:26.530Z,2.30
2019-02-10T07:17:26.507Z,2.10
2019-02-10T07:18:26.485Z,1.90
2019-02-10T07:19:26.463Z,2.30
2019-02-10T07:20:26.439Z,2.10
2019-02-10T07:21:26.417Z,2.10
2019-02-10T07:22:26.397Z,2.20
2019-02-10T07:23:26.375Z,2.00
2019-02-10T07:24:26.349Z,1.80
2019-02-10T07:25:26.327Z,1.90
2019-02-10T07:26:26.311Z,1.90
2019-02-10T07:27:26.288Z,2.10
2019-02-10T07:28:26.261Z,1.60
2019-02-10T07:29:26.242Z,2.10
2019-02-10T07:30:26.215Z,1.90
2019-02-10T07:31:26.192Z,2.40
2019-02-10T07:32:26.174Z,2.00
2019-02-10T07:33:26.147Z,1.90
2019-02-10T07:34:26.132Z,2.40
2019-02-10T07:35:26.107Z,1.60
2019-02-10T07:36:26.090Z,1.60
2019-02-10T07:37:26.062Z,1.90
2019-02-10T07:38:26.039Z,1.60
2019-02-10T07:39:26.017Z,2.10
2019-02-10T07:40:25.993Z,1.60
2019-02-10T07:41:25.969Z,1.80
2019-02-10T07:42:25.949Z,1.50
2019-02-10T07:43:25.936Z,1.60
2019-02-10T07:44:25.905Z,1.70
2019-02-10T07:45:25.880Z,1.90
2019-02-10T07:46:25.857Z,1.70
2019-02-10T07:47:25.837Z,1.70
2019-02-10T07:48:25.812Z,1.60
2019-02-10T07:49:25.793Z,2.10
2019-02-10T07:50:25.770Z,1.90
2019-02-10T07:51:25.749Z,1.70
2019-02-10T07:52:25.732Z,1.60
2019-02-10T07:53:25.709Z,1.80
2019-02-10T07:54:25.684Z,1.80
2019-02-10T07:55:25.659Z,1.70
2019-02-10T07:56:25.637Z,2.10
2019-02-10T07:57:25.613Z,2.20
2019-02-10T07:58:25.598Z,1.90
2019-02-10T07:59:25.570Z,1.70
2019-02-10T08:00:25.551Z,1.30
2019-02-10T08:01:25.582Z,1.80
2019-02-10T08:02:25.506Z,2.00
2019-02-10T08:03:25.483Z,1.60
2019-02-10T08:04:25.469Z,1.40
2019-02-10T08:05:25.448Z,1.60
2019-02-10T08:06:25.415Z,1.60
2019-02-10T08:07:25.397Z,1.70
2019-02-10T08:08:26.676Z,1.60
2019-02-10T08:09:25.353Z,1.70
2019-02-10T08:10:25.340Z,1.80
2019-02-10T08:11:25.306Z,1.70
2019-02-10T08:12:25.280Z,1.50
2019-02-10T08:13:25.262Z,1.80
2019-02-10T08:14:25.242Z,1.50
2019-02-10T08:15:25.214Z,1.60
2019-02-10T08:16:25.196Z,1.40
2019-02-10T08:17:25.175Z,1.60
2019-02-10T08:18:25.149Z,1.40
2019-02-10T08:19:25.132Z,1.90
2019-02-10T08:20:25.116Z,1.50
2019-02-10T08:21:25.083Z,1.30
2019-02-10T08:22:25.062Z,1.60
2019-02-10T08:23:25.044Z,1.90
2019-02-10T08:24:25.016Z,1.50
2019-02-10T08:25:24.999Z,1.80
2019-02-10T08:26:24.974Z,1.50
2019-02-10T08:27:24.952Z,1.80
2019-02-10T08:28:24.928Z,1.50
2019-02-10T08:29:24.908Z,1.80
2019-02-10T08:30:24.888Z,1.80
2019-02-10T08:31:24.868Z,1.50
2019-02-10T08:32:24.841Z,2.00
2019-02-10T08:33:24.823Z,1.60
2019-02-10T08:34:24.806Z,2.00
2019-02-10T08:35:24.776Z,1.90
2019-02-10T08:36:24.752Z,2.20
2019-02-10T08:37:24.730Z,2.70
2019-02-10T08:38:24.708Z,2.10
2019-02-10T08:39:24.687Z,2.00
2019-02-10T08:40:24.669Z,1.90
2019-02-10T08:41:24.653Z,1.90
2019-02-10T08:42:24.620Z,2.10
2019-02-10T08:43:24.604Z,2.20
2019-02-10T08:44:24.578Z,1.90
2019-02-10T08:45:24.554Z,2.80
2019-02-10T08:46:24.538Z,2.40
2019-02-10T08:47:24.514Z,2.90
2019-02-10T08:48:24.492Z,3.30
2019-02-10T08:49:25.653Z,3.00
2019-02-10T08:50:24.447Z,2.50
2019-02-10T08:51:24.421Z,2.30
2019-02-10T08:52:24.402Z,2.10
2019-02-10T08:53:24.388Z,2.20
2019-02-10T08:54:24.359Z,2.90
2019-02-10T08:55:24.332Z,2.80
2019-02-10T08:56:24.310Z,2.90
2019-02-10T08:57:24.294Z,2.70
2019-02-10T08:58:24.264Z,3.00
2019-02-10T08:59:24.243Z,2.70
2019-02-10T09:00:24.221Z,3.20
2019-02-10T09:01:24.202Z,3.10
2019-02-10T09:02:24.188Z,3.20
2019-02-10T09:03:24.157Z,2.70
2019-02-10T09:04:24.139Z,3.30
2019-02-10T09:05:24.112Z,2.60
2019-02-10T09:06:24.085Z,2.90
2019-02-10T09:07:24.064Z,3.40
2019-02-10T09:08:24.046Z,3.60
2019-02-10T09:09:24.023Z,3.80
2019-02-10T09:10:24.000Z,3.30
2019-02-10T09:11:23.976Z,4.00
2019-02-10T09:12:23.989Z,4.40
2019-02-10T09:13:23.935Z,3.80
2019-02-10T09:14:23.910Z,2.90
2019-02-10T09:15:23.888Z,4.00
2019-02-10T09:16:23.862Z,3.70
2019-02-10T09:17:23.842Z,4.00
2019-02-10T09:18:23.822Z,4.80
2019-02-10T09:19:23.804Z,3.80
2019-02-10T09:20:23.773Z,5.40
2019-02-10T09:21:23.753Z,5.00
2019-02-10T09:22:23.738Z,4.60
2019-02-10T09:23:23.711Z,5.40
2019-02-10T09:24:23.681Z,4.70
2019-02-10T09:25:23.660Z,5.10
2019-02-10T09:26:23.639Z,5.50
2019-02-10T09:27:23.616Z,4.50
2019-02-10T09:28:23.593Z,5.50
2019-02-10T09:29:23.575Z,4.40
2019-02-10T09:30:23.547Z,6.90
2019-02-10T09:31:23.534Z,4.80
2019-02-10T09:32:23.503Z,5.60
2019-02-10T09:33:23.483Z,5.40
2019-02-10T09:34:23.457Z,5.40
2019-02-10T09:35:23.433Z,5.20
2019-02-10T09:36:23.413Z,6.00
2019-02-10T09:37:23.390Z,5.60
2019-02-10T09:38:23.364Z,6.50
2019-02-10T09:39:23.359Z,5.40
2019-02-10T09:40:23.319Z,4.90
2019-02-10T09:41:23.299Z,6.40
2019-02-10T09:42:23.277Z,6.80
2019-02-10T09:43:23.253Z,6.90
2019-02-10T09:44:23.230Z,6.30
2019-02-10T09:45:23.206Z,5.80
2019-02-10T09:46:23.185Z,6.00
2019-02-10T09:47:23.160Z,6.10
2019-02-10T09:48:23.138Z,6.20
2019-02-10T09:49:23.129Z,5.50
2019-02-10T09:50:23.091Z,7.00
2019-02-10T09:51:23.070Z,6.30
2019-02-10T09:52:23.044Z,6.90
2019-02-10T09:53:23.025Z,6.90
2019-02-10T09:54:23.001Z,6.30
2019-02-10T09:55:22.981Z,6.40
2019-02-10T09:56:22.956Z,7.30
2019-02-10T09:57:22.934Z,6.60
2019-02-10T09:58:22.916Z,6.90
2019-02-10T09:59:22.886Z,6.80
2019-02-10T10:00:22.866Z,7.20
2019-02-10T10:01:22.842Z,7.10
2019-02-10T10:02:22.825Z,8.80
2019-02-10T10:03:22.796Z,6.30
2019-02-10T10:04:22.774Z,5.70
2019-02-10T10:05:22.749Z,7.80
2019-02-10T10:06:22.769Z,7.00
2019-02-10T10:07:22.703Z,7.30
2019-02-10T10:08:22.682Z,7.00
2019-02-10T10:09:22.655Z,5.30
2019-02-10T10:10:22.638Z,7.00
2019-02-10T10:11:22.616Z,6.70
2019-02-10T10:12:22.588Z,6.00
2019-02-10T10:13:22.565Z,6.80
2019-02-10T10:14:30.518Z,6.30
2019-02-10T10:15:22.520Z,7.00
2019-02-10T10:16:22.504Z,6.40
2019-02-10T10:17:22.478Z,5.40
2019-02-10T10:18:22.452Z,6.10
2019-02-10T10:19:22.428Z,7.20
2019-02-10T10:20:22.407Z,6.10
2019-02-10T10:21:22.390Z,6.90
2019-02-10T10:22:22.363Z,6.70
2019-02-10T10:23:22.338Z,7.30
2019-02-10T10:24:22.313Z,5.80
2019-02-10T10:25:22.296Z,7.20
2019-02-10T10:26:22.268Z,6.80
2019-02-10T10:27:22.249Z,6.20
2019-02-10T10:28:22.228Z,7.30
2019-02-10T10:29:22.202Z,7.70
2019-02-10T10:30:22.176Z,7.60
2019-02-10T10:31:22.161Z,8.10
2019-02-10T10:32:22.136Z,5.90
2019-02-10T10:33:22.117Z,7.80
2019-02-10T10:34:22.086Z,6.00
2019-02-10T10:35:22.065Z,6.90
2019-02-10T10:36:22.044Z,6.00
2019-02-10T10:37:22.019Z,5.70
2019-02-10T10:38:21.997Z,5.80
2019-02-10T10:39:27.290Z,6.60
2019-02-10T10:40:21.952Z,6.80
2019-02-10T10:41:21.937Z,5.80
2019-02-10T10:42:21.907Z,6.10
2019-02-10T10:43:21.879Z,7.40
2019-02-10T10:44:21.862Z,6.90
2019-02-10T10:45:21.838Z,6.20
2019-02-10T10:46:21.813Z,6.90
2019-02-10T10:47:21.787Z,6.70
2019-02-10T10:48:21.769Z,6.60
2019-02-10T10:49:21.748Z,7.00
2019-02-10T10:50:21.722Z,6.90
2019-02-10T10:51:21.702Z,6.30
2019-02-10T10:52:21.679Z,5.60
2019-02-10T10:53:21.657Z,6.80
2019-02-10T10:54:21.636Z,8.00
2019-02-10T10:55:21.608Z,7.20
2019-02-10T10:56:21.597Z,6.70
2019-02-10T10:57:21.570Z,7.50
2019-02-10T10:58:21.541Z,7.90
2019-02-10T10:59:21.522Z,7.60
2019-02-10T11:00:21.504Z,6.20
2019-02-10T11:01:25.350Z,6.30
2019-02-10T11:02:21.449Z,7.00
2019-02-10T11:03:21.430Z,5.90
2019-02-10T11:04:21.403Z,6.80
2019-02-10T11:05:21.380Z,7.60
2019-02-10T11:06:21.360Z,5.70
2019-02-10T11:07:21.338Z,5.70
2019-02-10T11:08:21.313Z,5.90
2019-02-10T11:09:21.314Z,6.80
2019-02-10T11:10:21.270Z,6.90
2019-02-10T11:11:21.242Z,6.60
2019-02-10T11:12:21.219Z,6.60
2019-02-10T11:13:21.200Z,5.70
2019-02-10T11:14:21.176Z,6.10
2019-02-10T11:15:21.153Z,6.70
2019-02-10T11:16:21.140Z,7.00
2019-02-10T11:17:21.111Z,6.00
2019-02-10T11:18:21.087Z,6.60
2019-02-10T11:19:21.062Z,6.20
2019-02-10T11:20:21.038Z,6.30
2019-02-10T11:21:21.012Z,7.00
2019-02-10T11:22:20.990Z,6.20
2019-02-10T11:24:28.570Z,8.00
2019-02-10T11:25:23.500Z,8.40
2019-02-10T11:26:23.471Z,6.90
2019-02-10T11:27:23.456Z,6.70
2019-02-10T11:28:23.433Z,7.90
2019-02-10T11:29:23.407Z,6.70
2019-02-10T11:30:23.389Z,7.80
2019-02-10T11:31:23.360Z,6.70
2019-02-10T11:32:23.338Z,7.10
2019-02-10T11:33:23.320Z,6.40
2019-02-10T11:34:23.309Z,6.70
2019-02-10T11:35:23.271Z,6.10
2019-02-10T11:36:23.251Z,7.30
2019-02-10T11:37:26.980Z,6.70
2019-02-10T11:38:23.208Z,7.60
2019-02-10T11:39:23.180Z,8.60
2019-02-10T11:40:23.159Z,8.00
2019-02-10T11:41:23.134Z,8.40
2019-02-10T11:42:23.111Z,8.10
2019-02-10T11:43:23.088Z,8.20
2019-02-10T11:44:23.066Z,7.40
2019-02-10T11:45:23.045Z,9.50
2019-02-10T11:46:23.029Z,8.40
2019-02-10T11:47:22.995Z,7.10
2019-02-10T11:48:22.977Z,9.20
2019-02-10T11:49:22.953Z,8.80
2019-02-10T11:50:22.935Z,6.60
2019-02-10T11:51:22.910Z,7.10
2019-02-10T11:52:22.885Z,5.90
2019-02-10T11:53:22.859Z,9.30
2019-02-10T11:54:22.847Z,8.80
2019-02-10T11:55:22.819Z,8.00
2019-02-10T11:56:22.793Z,8.80
2019-02-10T11:57:22.778Z,7.80
2019-02-10T11:58:22.748Z,10.60
2019-02-10T11:59:22.739Z,8.00
2019-02-10T12:00:22.703Z,9.40
2019-02-10T12:01:22.677Z,7.50
2019-02-10T12:02:22.657Z,7.40
2019-02-10T12:03:22.632Z,7.30
2019-02-10T12:04:22.611Z,6.20
2019-02-10T12:05:22.587Z,7.30
2019-02-10T12:06:22.571Z,8.50
2019-02-10T12:07:22.544Z,7.60
2019-02-10T12:08:22.526Z,10.20
2019-02-10T12:09:22.499Z,6.30
2019-02-10T12:10:22.479Z,8.40
2019-02-10T12:11:22.453Z,8.20
2019-02-10T12:12:22.434Z,6.30
2019-02-10T12:13:22.409Z,7.00
2019-02-10T12:14:22.381Z,6.70
2019-02-10T12:15:22.362Z,7.00
2019-02-10T12:16:22.339Z,7.30
2019-02-10T12:17:22.322Z,6.20
2019-02-10T12:18:22.295Z,8.20
2019-02-10T12:19:22.275Z,5.10
2019-02-10T12:20:22.249Z,7.60
2019-02-10T12:21:22.225Z,7.80
2019-02-10T12:22:22.213Z,7.50
2019-02-10T12:23:22.187Z,4.70
2019-02-10T12:24:22.163Z,6.30
2019-02-10T12:25:22.140Z,5.70
2019-02-10T12:26:22.122Z,5.20
2019-02-10T12:27:22.100Z,5.80
2019-02-10T12:28:22.071Z,8.50
2019-02-10T12:29:22.047Z,7.40
2019-02-10T12:30:22.030Z,5.40
2019-02-10T12:31:22.003Z,5.40
2019-02-10T12:32:21.981Z,6.00
2019-02-10T12:33:21.957Z,5.40
2019-02-10T12:34:21.941Z,5.10
2019-02-10T12:35:21.910Z,5.10
2019-02-10T12:36:21.890Z,5.10
2019-02-10T12:37:21.873Z,5.00
2019-02-10T12:38:21.845Z,6.50
2019-02-10T12:39:21.820Z,5.20
2019-02-10T12:40:21.801Z,5.30
2019-02-10T12:41:21.779Z,6.10
2019-02-10T12:42:21.753Z,3.90
2019-02-10T12:43:21.737Z,5.90
2019-02-10T12:44:21.713Z,4.30
2019-02-10T12:45:21.685Z,4.40
2019-02-10T12:46:21.671Z,5.90
2019-02-10T12:47:21.642Z,4.70
2019-02-10T12:48:21.619Z,5.60
2019-02-10T12:49:21.600Z,4.40
2019-02-10T12:50:21.575Z,6.10
2019-02-10T12:51:21.556Z,5.60
2019-02-10T12:52:21.533Z,6.20
2019-02-10T12:53:21.513Z,4.50
2019-02-10T12:54:21.480Z,4.10
2019-02-10T12:55:21.459Z,5.30
2019-02-10T12:56:21.438Z,5.80
2019-02-10T12:57:21.416Z,6.40
2019-02-10T12:58:21.392Z,5.20
2019-02-10T12:59:21.370Z,4.50
2019-02-10T13:00:21.350Z,5.50
2019-02-10T13:01:21.328Z,4.40
2019-02-10T13:02:21.306Z,4.60
2019-02-10T13:03:21.286Z,5.20
2019-02-10T13:04:21.263Z,4.90
2019-02-10T13:05:21.237Z,7.50
2019-02-10T13:06:21.231Z,5.90
2019-02-10T13:07:21.192Z,4.30
2019-02-10T13:08:21.179Z,6.20
2019-02-10T13:09:21.148Z,5.30
2019-02-10T13:10:21.133Z,6.10
2019-02-10T13:11:21.104Z,6.00
2019-02-10T13:12:21.085Z,4.70
2019-02-10T13:13:21.065Z,5.60
2019-02-10T13:14:21.038Z,7.60
2019-02-10T13:15:21.017Z,6.90
2019-02-10T13:16:20.994Z,5.90
2019-02-10T13:17:20.971Z,5.30
2019-02-10T13:18:20.950Z,5.00
2019-02-10T13:19:20.929Z,6.00